Airfield :
LOGIN :

Register | Disclaimer

   EN    FR    IT 

 










Legend :    VFR   Marginal VFR   IFR   Intensive IFR   Very Intensive IFR
Visi :
Ceiling :
>= 8 km
>= 3000ft
5 to 8 km
1000 to 3000 ft
1500m to 5 km
500 to 1000 ft
800 to 1500m
200 to 500 ft
< 800m
< 200 ft
Symbols :   Thunderstorms  Fog  Heavy snow  Heavy precipitations  Wind > 20 kt
SIGMETs :     Misc.  Thunderstorms  Icing  Turbulence  Mountain Waves  Volcanic Ashes






- Airport Elevation : 645 ft
- IATA code : DLE


LFGJ - Dole Tavaux

CURRENT METAR :
  • 011430Z AUTO 14003KT 100V190 9999 ///CB 18/16 Q1014 TEMPO VRB15G25KT 2000 TSRA

EXPIRED METARs :
  • 011400Z AUTO VRB02KT 9999 FEW025/// SCT043/// BKN082/// ///CB 17/15 Q1014 TEMPO 25015G25KT 2000 TSRA BKN010 SCT030CB
  • 011330Z AUTO 10006KT 9999 RA ///TCU 16/15 Q1014 TEMPO 25015G25KT 2000 TSRA BKN010 SCT030CB
  • 011300Z AUTO 23004KT 9999 ///CB 16/14 Q1013 TEMPO 25015G25KT 2000 TSRA BKN010 SCT030CB
  • 011230Z AUTO 16004KT 110V210 9999 VCTS ///CB 16/14 Q1013 TEMPO 25015G25KT 2000 TSRA BKN010 SCT030CB
  • 011200Z AUTO 16004KT 120V200 9999 TS ///CB 15/13 Q1013 TEMPO 25015G25KT 2000 TSRA BKN010 SCT030CB
  • 011130Z AUTO 03009KT 330V060 9999 TSRA FEW022/// SCT052/// BKN062/// ///CB 15/13 Q1013 TEMPO 25010G20KT 2000 TSRA BKN010 SCT030CB

TAF TAF LFGJ
Valid from the 01 at 15:00 until the 02 at 00:00 UTC


011400Z 0115/0124 21005KT 9999 FEW010 SCT040
PROB40
TEMPO 0115/0118 VRB15G25KT 2000 TSRA SCT030CB



MET'MAP, your aeronautical weather chart ! - Copyright ORBIFLY December 2007 - Disclaimer

ORBIFLY MET'MAP TEAM :

Programming & Development : Alexandra Zaïnal
Concept & original design : Baudouin d'Aumeries
Assistance for programming : Marc-Olivier Méhu
Technical & hardware support : Manuel Goepfert

Contact : metmap@orbifly.com




SOURCES & CREDITS :

   NOAA